Time;durP1;ratioP1;P1;durP2;ratioP2;P2;SDS_P1;SDS_P2;PMS_P1;PMS_P2;Temp;Humidity;BMP_temperature;BMP_pressure;BME280_temperature;BME280_humidity;BME280_pressure;Samples;Min_cycle;Max_cycle;Signal;HPM_P1;HPM_P2
2023/10/26 00:00:32;;;;;;;6.93;3.90;;;15.10;99.90;;;15.35;68.72;99073.66;4887780;28;98114;-48
2023/10/26 00:02:58;;;;;;;7.80;4.60;;;15.00;99.90;;;15.43;69.44;99068.53;4891624;28;97919;-52
2023/10/26 00:05:25;;;;;;;5.90;4.00;;;15.10;99.90;;;15.45;68.39;99069.25;4895278;28;99632;-50
2023/10/26 00:07:51;;;;;;;5.87;3.90;;;15.20;99.90;;;15.54;68.71;99071.19;4891670;28;97864;-48
2023/10/26 00:10:18;;;;;;;7.10;4.03;;;15.20;99.90;;;15.56;67.74;99079.88;4890282;28;98722;-49
2023/10/26 00:12:44;;;;;;;5.47;3.90;;;15.30;99.90;;;15.50;67.56;99080.38;4900218;28;97926;-52
2023/10/26 00:15:11;;;;;;;6.83;4.00;;;15.20;99.90;;;15.64;68.22;99085.44;4904839;28;97039;-48
2023/10/26 00:17:38;;;;;;;5.83;3.73;;;15.30;99.90;;;15.67;66.79;99087.84;4891474;28;97592;-50
2023/10/26 00:20:06;;;;;;;5.70;3.83;;;15.40;99.90;;;15.65;66.99;99088.97;4890658;28;97713;-51
2023/10/26 00:22:32;;;;;;;6.70;4.10;;;15.40;99.90;;;15.61;66.43;99092.81;4892777;28;97701;-49
2023/10/26 00:24:57;;;;;;;6.70;4.33;;;15.30;99.90;;;15.70;67.70;99098.22;4887116;28;97594;-56
2023/10/26 00:27:23;;;;;;;6.50;3.80;;;15.40;99.90;;;15.68;66.79;99102.84;4891467;28;98461;-48
2023/10/26 00:29:49;;;;;;;6.77;4.17;;;15.30;99.90;;;15.70;67.68;99098.22;4902093;28;96965;-47
2023/10/26 00:32:15;;;;;;;7.90;4.33;;;15.40;99.90;;;15.57;66.60;99102.81;4902746;28;97480;-49
2023/10/26 00:34:41;;;;;;;8.37;4.83;;;15.30;99.90;;;15.60;67.24;99107.91;4911452;28;97517;-46
2023/10/26 00:37:07;;;;;;;5.13;3.27;;;15.20;99.90;;;15.62;66.50;99110.44;4915358;28;110782;-49
2023/10/26 00:39:34;;;;;;;6.27;3.93;;;15.30;99.90;;;15.47;66.10;99113.31;4907808;28;97382;-46
2023/10/26 00:42:00;;;;;;;6.30;4.10;;;15.20;99.90;;;15.46;66.43;99124.09;4906472;28;97046;-50
2023/10/26 00:44:26;;;;;;;7.17;4.43;;;15.20;99.90;;;15.46;68.19;99119.63;4904096;28;97247;-49
2023/10/26 00:46:54;;;;;;;7.33;4.10;;;15.10;99.90;;;15.48;66.65;99119.53;4916869;28;100682;-47
2023/10/26 00:49:20;;;;;;;7.50;4.43;;;15.20;99.90;;;15.46;67.30;99127.59;4904488;28;97330;-49
2023/10/26 00:51:55;;;;;;;7.67;4.53;;;15.20;99.90;;;15.62;67.70;99137.00;4924204;28;97545;-50
2023/10/26 00:54:22;;;;;;;6.67;4.50;;;15.30;99.90;;;15.61;65.71;99140.66;4917171;28;97567;-49
2023/10/26 00:56:50;;;;;;;6.93;4.50;;;15.30;99.90;;;15.59;65.67;99145.22;4911394;28;99132;-46
2023/10/26 00:59:17;;;;;;;7.97;5.10;;;15.30;99.90;;;15.69;67.11;99144.38;4919467;28;98218;-46
2023/10/26 01:01:47;;;;;;;8.13;4.00;;;15.40;99.90;;;15.72;67.38;99138.81;4930554;28;97585;-49
2023/10/26 01:04:16;;;;;;;7.27;4.27;;;15.40;99.90;;;15.69;67.24;99149.69;4929194;28;97390;-47
2023/10/26 01:06:44;;;;;;;7.77;4.57;;;15.30;99.90;;;15.62;65.87;99145.88;4912461;28;96952;-49
2023/10/26 01:09:10;;;;;;;6.03;4.10;;;15.30;99.90;;;15.69;66.81;99149.69;4910416;28;97371;-48
2023/10/26 01:11:37;;;;;;;6.67;4.40;;;15.30;99.90;;;15.59;65.46;99154.06;4908614;28;97552;-48
2023/10/26 01:14:07;;;;;;;7.37;4.23;;;15.30;99.90;;;15.74;66.21;99158.13;4910838;28;97446;-49
2023/10/26 01:16:34;;;;;;;6.77;4.70;;;15.40;99.90;;;15.81;67.02;99155.00;4912460;28;97057;-47
2023/10/26 01:19:02;;;;;;;11.30;5.07;;;15.50;99.90;;;15.68;64.67;99153.34;4929328;28;97152;-49
2023/10/26 01:21:30;;;;;;;8.60;4.67;;;15.40;99.90;;;15.80;64.97;99163.97;4914425;28;96716;-49
2023/10/26 01:23:56;;;;;;;4.47;2.90;;;15.60;99.90;;;15.77;66.31;99167.72;4917947;28;97379;-48
2023/10/26 01:26:22;;;;;;;8.47;4.73;;;15.50;99.90;;;15.88;66.19;99164.16;4919917;28;100441;-47
2023/10/26 01:28:48;;;;;;;6.63;4.47;;;15.50;99.90;;;15.87;66.50;99167.78;4909667;28;97521;-47
2023/10/26 01:31:17;;;;;;;5.73;4.00;;;15.50;99.90;;;15.93;66.42;99169.97;4911917;28;98057;-46
2023/10/26 01:33:45;;;;;;;7.53;4.67;;;15.50;99.90;;;15.85;65.06;99167.06;4911340;28;96861;-47
2023/10/26 01:36:11;;;;;;;7.77;4.90;;;15.50;99.90;;;15.70;64.83;99174.47;4912630;28;98023;-46
2023/10/26 01:38:37;;;;;;;9.83;5.63;;;15.40;99.90;;;15.75;66.05;99175.78;4922841;28;97686;-47
2023/10/26 01:41:04;;;;;;;7.67;4.93;;;15.40;99.90;;;15.79;66.87;99180.88;4931541;28;97486;-47
2023/10/26 01:43:30;;;;;;;8.10;4.70;;;15.40;99.90;;;15.85;66.50;99185.69;4931316;28;97290;-46
2023/10/26 01:45:56;;;;;;;8.17;5.17;;;15.50;99.90;;;15.79;64.73;99183.53;4921804;28;97412;-47
2023/10/26 01:48:26;;;;;;;6.87;4.17;;;15.50;99.90;;;15.67;64.43;99193.31;4911313;28;119583;-48
2023/10/26 01:50:51;;;;;;;8.53;4.73;;;15.40;99.90;;;15.56;66.03;99186.16;4925715;28;97504;-47
2023/10/26 01:53:17;;;;;;;8.20;4.30;;;15.20;99.90;;;15.60;65.98;99184.97;4905539;28;100416;-47
2023/10/26 01:55:43;;;;;;;8.50;5.07;;;15.30;99.90;;;15.60;66.25;99187.63;4913325;28;98418;-50
2023/10/26 01:58:09;;;;;;;7.53;5.00;;;15.30;99.90;;;15.63;66.26;99191.88;4922770;28;97387;-47
2023/10/26 02:00:35;;;;;;;8.67;4.83;;;15.30;99.90;;;15.50;65.05;99197.28;4920336;28;96891;-48
2023/10/26 02:03:01;;;;;;;9.80;5.37;;;15.20;99.90;;;15.60;66.48;99182.31;4916630;28;97052;-48
2023/10/26 02:05:27;;;;;;;9.30;5.03;;;15.30;99.90;;;15.60;66.07;99187.63;4922078;28;102156;-48
2023/10/26 02:07:53;;;;;;;10.33;4.97;;;15.30;99.90;;;15.62;65.69;99193.69;4912514;28;99798;-48
2023/10/26 02:10:19;;;;;;;6.67;4.40;;;15.20;99.90;;;15.65;66.76;99196.09;4909826;28;97249;-46
2023/10/26 02:12:45;;;;;;;7.63;4.50;;;15.30;99.90;;;15.66;65.87;99194.28;4909808;28;97166;-49
2023/10/26 02:15:13;;;;;;;5.80;4.30;;;15.30;99.90;;;15.59;64.49;99201.88;4908091;28;98493;-49
2023/10/26 02:17:39;;;;;;;7.90;4.80;;;15.30;99.90;;;15.54;65.09;99193.41;4926383;28;97862;-47
2023/10/26 02:20:06;;;;;;;8.67;4.97;;;15.20;99.90;;;15.51;65.34;99192.81;4909067;28;97376;-47
2023/10/26 02:22:32;;;;;;;6.30;3.70;;;15.20;99.90;;;15.48;65.58;99188.59;4928113;28;97351;-47
2023/10/26 02:24:58;;;;;;;7.60;4.53;;;15.20;99.90;;;15.55;66.77;99189.78;4917573;28;100719;-56
2023/10/26 02:27:23;;;;;;;8.40;5.27;;;15.20;99.90;;;15.65;65.38;99193.44;4920744;28;97274;-52
2023/10/26 02:29:49;;;;;;;7.97;4.47;;;15.40;99.90;;;15.60;66.08;99198.28;4910243;28;100529;-48
2023/10/26 02:32:15;;;;;;;6.93;4.50;;;15.30;99.90;;;15.53;63.84;99197.03;4908417;28;97170;-50
2023/10/26 02:34:41;;;;;;;7.83;4.80;;;15.30;99.90;;;15.69;66.92;99202.88;4901905;28;101257;-46
2023/10/26 02:37:06;;;;;;;6.57;4.13;;;15.40;99.90;;;15.60;63.18;99200.94;4906095;28;99235;-48
2023/10/26 02:39:32;;;;;;;6.07;3.77;;;15.30;99.90;;;15.55;63.60;99200.41;4921790;28;97261;-50
2023/10/26 02:41:58;;;;;;;6.40;4.23;;;15.20;99.90;;;15.57;64.38;99203.81;4928110;28;97377;-57
2023/10/26 02:44:25;;;;;;;5.63;3.97;;;15.20;99.90;;;15.57;63.59;99209.13;4924742;28;111221;-49
2023/10/26 02:46:51;;;;;;;7.23;3.87;;;15.20;99.90;;;15.58;64.43;99213.47;4915080;28;97663;-46
2023/10/26 02:49:16;;;;;;;5.67;3.80;;;15.20;99.90;;;15.53;62.85;99213.00;4908869;28;97482;-46
2023/10/26 02:51:42;;;;;;;4.23;3.30;;;15.20;99.90;;;15.63;65.94;99216.66;4908493;28;103131;-46
2023/10/26 02:54:09;;;;;;;5.53;3.33;;;15.30;99.90;;;15.55;64.35;99221.69;4913142;28;97391;-47
2023/10/26 02:56:35;;;;;;;4.80;3.37;;;15.20;99.90;;;15.54;65.97;99211.19;4927463;28;97293;-46
2023/10/26 02:59:00;;;;;;;5.07;3.50;;;15.20;99.90;;;15.53;62.85;99212.16;4914185;28;106055;-46
2023/10/26 03:01:33;;;;;;;2.70;2.40;;;15.20;99.90;;;15.45;62.46;99215.38;4913939;28;97338;-48
2023/10/26 03:04:01;;;;;;;5.30;2.90;;;15.20;99.90;;;15.60;66.11;99208.91;4907993;28;100522;-46
2023/10/26 03:06:27;;;;;;;4.43;2.43;;;15.30;99.90;;;15.67;64.26;99210.13;4923951;28;97642;-47
2023/10/26 03:08:53;;;;;;;3.03;2.30;;;15.40;99.90;;;15.70;61.58;99209.88;4923273;28;99722;-48
2023/10/26 03:11:19;;;;;;;4.30;2.83;;;15.50;99.90;;;15.79;62.61;99220.75;4926298;28;97538;-47
2023/10/26 03:13:44;;;;;;;3.23;2.50;;;15.50;99.90;;;15.72;60.54;99215.91;4923618;28;97195;-47
2023/10/26 03:16:10;;;;;;;3.87;2.97;;;15.50;99.90;;;15.94;64.75;99222.19;4929564;28;106799;-47
2023/10/26 03:18:37;;;;;;;5.27;2.60;;;15.70;99.90;;;16.01;62.00;99215.38;4927183;28;97573;-49
2023/10/26 03:21:04;;;;;;;4.57;3.00;;;15.80;99.90;;;16.03;61.72;99213.44;4926804;28;99746;-48
2023/10/26 03:23:30;;;;;;;6.67;3.60;;;15.80;99.90;;;16.04;63.92;99207.16;4930189;28;97162;-47
2023/10/26 03:25:56;;;;;;;4.43;3.03;;;15.70;99.90;;;16.20;62.25;99207.63;4933302;28;108231;-48
2023/10/26 03:28:21;;;;;;;4.27;2.80;;;16.00;99.90;;;16.13;59.15;99206.41;4925947;28;97123;-47
2023/10/26 03:30:47;;;;;;;4.57;3.30;;;15.90;99.90;;;16.20;62.40;99215.59;4919387;28;96966;-47
2023/10/26 03:33:13;;;;;;;5.53;3.30;;;15.90;99.90;;;16.19;61.73;99221.03;4896055;28;101452;-50
2023/10/26 03:35:38;;;;;;;3.90;2.93;;;15.90;99.90;;;16.19;60.46;99226.34;4911276;28;97803;-48
2023/10/26 03:38:04;;;;;;;4.67;2.73;;;15.90;99.90;;;16.13;59.59;99219.72;4924609;28;97005;-48
2023/10/26 03:40:30;;;;;;;3.70;2.50;;;15.80;99.90;;;16.09;61.61;99220.94;4912949;28;97279;-48
2023/10/26 03:42:56;;;;;;;3.33;2.50;;;15.70;99.90;;;16.01;60.16;99224.22;4915277;28;98720;-47
2023/10/26 03:45:22;;;;;;;3.50;2.37;;;15.60;99.90;;;16.16;64.23;99230.09;4911987;28;97263;-47
2023/10/26 03:47:47;;;;;;;4.60;2.90;;;15.70;99.90;;;16.26;63.88;99219.56;4921536;28;97618;-47
2023/10/26 03:50:13;;;;;;;5.63;3.73;;;15.90;99.90;;;16.30;61.46;99224.50;4929155;28;97326;-50
2023/10/26 03:52:39;;;;;;;5.90;3.60;;;16.00;99.90;;;16.33;61.90;99221.59;4929480;28;105999;-47
2023/10/26 03:55:05;;;;;;;5.07;3.00;;;16.00;99.90;;;16.36;62.01;99209.88;4921833;28;97200;-46
2023/10/26 03:57:33;;;;;;;4.83;3.23;;;16.00;99.90;;;16.35;62.82;99216.16;4923814;28;97131;-47
2023/10/26 03:59:59;;;;;;;4.47;2.60;;;16.00;99.90;;;16.40;63.17;99210.44;4907828;28;97098;-47
2023/10/26 04:02:24;;;;;;;5.73;3.30;;;16.00;99.90;;;16.41;59.65;99205.00;4909497;28;98042;-47
2023/10/26 04:04:50;;;;;;;5.27;3.67;;;16.10;99.90;;;16.31;58.81;99220.88;4921785;28;98410;-46
2023/10/26 04:07:17;;;;;;;5.67;3.37;;;16.00;99.90;;;16.23;61.84;99222.47;4907534;28;99210;-49
2023/10/26 04:09:42;;;;;;;6.40;3.63;;;15.80;99.90;;;16.32;62.44;99222.56;4924945;28;96869;-48
2023/10/26 04:12:08;;;;;;;4.57;3.27;;;15.90;99.90;;;16.43;63.57;99223.50;4924541;28;113548;-46
2023/10/26 04:14:34;;;;;;;5.00;3.47;;;16.00;99.90;;;16.49;61.13;99222.97;4915676;28;113219;-51
2023/10/26 04:17:00;;;;;;;5.43;3.20;;;16.20;99.90;;;16.38;59.22;99220.38;4904539;28;97312;-48
2023/10/26 04:19:26;;;;;;;7.00;3.70;;;16.00;99.90;;;16.37;58.96;99222.19;4928387;28;97285;-48
2023/10/26 04:21:52;;;;;;;4.80;3.60;;;16.00;99.90;;;16.36;59.98;99224.03;4924789;28;97225;-47
2023/10/26 04:24:17;;;;;;;2.83;2.13;;;16.00;99.90;;;16.37;61.51;99224.88;4918810;28;115207;-47
2023/10/26 04:26:43;;;;;;;6.03;3.93;;;16.00;99.90;;;16.41;62.08;99220.13;4922423;28;109741;-48
2023/10/26 04:29:09;;;;;;;6.27;3.50;;;16.00;99.90;;;16.41;61.05;99220.13;4905722;28;97664;-47
2023/10/26 04:31:35;;;;;;;3.90;2.70;;;16.00;99.90;;;16.45;62.48;99217.06;4925135;28;97503;-46
2023/10/26 04:34:01;;;;;;;2.13;1.50;;;16.00;99.90;;;16.54;62.55;99212.81;4922839;28;99980;-47
2023/10/26 04:36:26;;;;;;;6.60;3.83;;;16.20;99.90;;;16.48;60.90;99218.63;4928332;28;97723;-48
2023/10/26 04:38:52;;;;;;;5.37;3.80;;;16.10;99.90;;;16.42;61.65;99216.50;4925154;28;97580;-46
2023/10/26 04:41:18;;;;;;;4.37;3.10;;;15.90;99.90;;;16.50;61.29;99208.72;4925568;28;102012;-51
2023/10/26 04:43:44;;;;;;;1.60;1.20;;;16.10;99.90;;;16.56;63.03;99208.22;4905148;28;97539;-47
2023/10/26 04:46:10;;;;;;;3.13;2.10;;;16.10;99.90;;;16.55;61.92;99222.50;4914318;28;106368;-47
2023/10/26 04:48:36;;;;;;;1.50;1.20;;;16.10;99.90;;;16.62;62.74;99213.00;4904434;28;108878;-47
2023/10/26 04:51:01;;;;;;;1.20;0.90;;;16.10;99.90;;;16.66;62.52;99203.81;4913620;28;97345;-48
2023/10/26 04:53:28;;;;;;;3.03;1.93;;;16.20;99.90;;;16.67;62.17;99205.53;4907414;28;98138;-48
2023/10/26 04:55:53;;;;;;;1.30;1.07;;;16.20;99.90;;;16.64;62.12;99205.78;4909268;28;97210;-46
2023/10/26 04:58:19;;;;;;;1.07;0.87;;;16.20;99.90;;;16.67;63.00;99194.91;4905275;28;97447;-47
2023/10/26 05:00:45;;;;;;;1.70;1.20;;;16.20;99.90;;;16.71;61.89;99201.63;4911904;28;98222;-47
2023/10/26 05:03:11;;;;;;;1.47;0.83;;;16.30;99.90;;;16.73;62.44;99199.69;4925614;28;109490;-47
2023/10/26 05:05:36;;;;;;;1.40;0.97;;;16.20;99.90;;;16.77;62.62;99195.78;4926511;28;97529;-47
2023/10/26 05:08:03;;;;;;;3.47;2.47;;;16.30;99.90;;;16.76;61.32;99188.78;4917474;28;97411;-49
2023/10/26 05:10:29;;;;;;;5.37;3.73;;;16.30;99.90;;;16.65;60.42;99207.47;4920067;28;97820;-49
2023/10/26 05:12:55;;;;;;;4.33;3.03;;;16.10;99.90;;;16.49;60.25;99204.34;4927610;28;113673;-49
2023/10/26 05:15:21;;;;;;;3.17;1.17;;;15.90;99.90;;;16.41;61.85;99209.47;4918969;28;97538;-47
2023/10/26 05:17:47;;;;;;;1.97;1.00;;;15.70;99.90;;;16.39;63.22;99206.09;4924916;28;97195;-47
2023/10/26 05:20:13;;;;;;;1.43;0.80;;;15.70;99.90;;;16.39;63.65;99204.28;4924244;28;97576;-46
2023/10/26 05:22:39;;;;;;;1.53;1.00;;;15.70;99.90;;;16.46;63.65;99205.47;4922730;28;97001;-49
2023/10/26 05:25:06;;;;;;;1.70;1.10;;;15.90;99.90;;;16.53;63.53;99209.31;4905654;28;96952;-49
2023/10/26 05:27:32;;;;;;;1.20;0.87;;;16.00;99.90;;;16.61;63.33;99203.34;4921875;28;97595;-47
2023/10/26 05:29:59;;;;;;;1.57;0.80;;;16.20;99.90;;;16.70;63.11;99194.63;4928288;28;100009;-51
2023/10/26 05:32:26;;;;;;;1.33;1.07;;;16.30;99.90;;;16.83;62.61;99194.44;4926389;28;100511;-50
2023/10/26 05:34:52;;;;;;;1.33;0.80;;;16.60;99.90;;;16.90;61.97;99196.44;4923383;28;97252;-47
2023/10/26 05:37:19;;;;;;;1.40;0.90;;;16.70;99.90;;;16.91;62.15;99192.81;4922151;28;97492;-47
2023/10/26 05:39:44;;;;;;;0.87;0.60;;;16.60;99.90;;;16.85;61.54;99198.66;4922988;28;96954;-51
2023/10/26 05:42:10;;;;;;;2.30;1.83;;;16.50;99.90;;;16.71;59.93;99201.63;4925015;28;115573;-49
2023/10/26 05:44:36;;;;;;;0.80;0.67;;;16.20;99.90;;;16.72;62.63;99192.69;4925728;28;97268;-50
2023/10/26 05:47:02;;;;;;;0.97;0.60;;;16.10;99.90;;;16.73;62.59;99194.38;4915690;28;97337;-47
2023/10/26 05:49:27;;;;;;;2.03;1.23;;;16.20;99.90;;;16.73;61.61;99194.38;4922413;28;97240;-47
2023/10/26 05:51:53;;;;;;;0.80;0.73;;;16.20;99.90;;;16.70;62.55;99189.31;4927770;28;100467;-49
2023/10/26 05:54:20;;;;;;;1.60;1.10;;;16.10;99.90;;;16.75;62.77;99187.09;4928092;28;97506;-48
2023/10/26 05:56:45;;;;;;;1.63;1.10;;;16.30;99.90;;;16.66;61.80;99190.50;4929962;28;97333;-46
2023/10/26 05:59:12;;;;;;;1.17;0.70;;;16.10;99.90;;;16.65;62.34;99208.31;4910134;28;105599;-48
2023/10/26 06:01:37;;;;;;;1.27;1.00;;;16.10;99.90;;;16.63;63.04;99198.72;4910329;28;97110;-49
2023/10/26 06:04:03;;;;;;;1.67;0.90;;;16.10;99.90;;;16.66;62.73;99204.66;4921430;28;103703;-51
2023/10/26 06:06:29;;;;;;;1.40;0.93;;;16.10;99.90;;;16.64;61.97;99211.09;4910512;28;98147;-52
2023/10/26 06:08:55;;;;;;;4.00;1.97;;;16.10;99.90;;;16.61;61.27;99211.31;4923945;28;98016;-49
2023/10/26 06:11:21;;;;;;;2.30;1.00;;;16.00;99.90;;;16.60;62.89;99209.63;4928555;28;97103;-48
2023/10/26 06:13:47;;;;;;;0.97;0.90;;;16.00;99.90;;;16.64;63.00;99216.41;4927544;28;97092;-48
2023/10/26 06:16:15;;;;;;;1.77;1.03;;;16.10;99.90;;;16.62;62.52;99213.84;4926183;28;108670;-51
2023/10/26 06:18:42;;;;;;;1.13;0.90;;;16.10;99.90;;;16.65;62.98;99212.78;4918926;28;97760;-48
2023/10/26 06:21:08;;;;;;;5.60;3.07;;;16.10;99.90;;;16.58;59.49;99207.09;4926744;28;97215;-48
2023/10/26 06:23:35;;;;;;;1.30;0.80;;;16.00;99.90;;;16.56;63.19;99203.72;4921407;28;100310;-50
2023/10/26 06:26:03;;;;;;;0.90;0.70;;;16.00;99.90;;;16.62;63.03;99210.34;4920984;28;97109;-46
2023/10/26 06:28:29;;;;;;;0.87;0.77;;;16.10;99.90;;;16.64;62.59;99211.09;4911975;28;97541;-49
2023/10/26 06:31:06;;;;;;;1.13;0.83;;;16.10;99.90;;;16.63;62.71;99204.91;4913980;28;99997;-46
2023/10/26 06:33:32;;;;;;;0.70;0.60;;;16.10;99.90;;;16.71;62.99;99211.44;4900083;28;98524;-47
2023/10/26 06:35:59;;;;;;;0.90;0.70;;;16.20;99.90;;;16.74;62.92;99206.69;4908284;28;97372;-48
2023/10/26 06:38:25;;;;;;;0.97;0.80;;;16.40;99.90;;;16.77;62.31;99198.44;4889315;28;101864;-52
2023/10/26 06:40:50;;;;;;;1.17;1.00;;;16.30;99.90;;;16.81;62.27;99207.88;4891851;28;99317;-50
2023/10/26 06:43:16;;;;;;;1.70;1.17;;;16.40;99.90;;;16.75;60.65;99208.38;4889575;28;99303;-48
2023/10/26 06:45:42;;;;;;;1.93;1.27;;;16.30;99.90;;;16.72;61.09;99219.31;4890539;28;97543;-48
2023/10/26 06:48:08;;;;;;;2.87;1.80;;;16.20;99.90;;;16.70;60.03;99225.72;4886871;28;118029;-51
2023/10/26 06:50:33;;;;;;;1.37;0.97;;;16.10;99.90;;;16.67;62.29;99232.16;4898203;28;107177;-49
2023/10/26 06:52:59;;;;;;;1.53;0.93;;;16.10;99.90;;;16.65;62.14;99234.91;4883773;28;100080;-56
2023/10/26 06:55:25;;;;;;;1.00;0.90;;;16.10;99.90;;;16.69;63.18;99229.38;4888934;28;97405;-50
2023/10/26 06:57:51;;;;;;;0.73;0.73;;;16.10;99.90;;;16.75;62.83;99227.03;4898695;28;97621;-51
2023/10/26 07:00:17;;;;;;;0.73;0.60;;;16.30;99.90;;;16.79;62.68;99233.81;4905956;28;98441;-51
2023/10/26 07:02:43;;;;;;;0.70;0.70;;;16.40;99.90;;;16.85;62.00;99232.44;4910918;28;97643;-51
2023/10/26 07:05:08;;;;;;;1.47;0.60;;;16.50;99.90;;;16.83;62.32;99221.91;4888097;28;99132;-49
2023/10/26 07:07:36;;;;;;;0.90;0.73;;;16.40;99.90;;;16.87;62.14;99222.50;4898774;28;99899;-50
2023/10/26 07:10:02;;;;;;;5.87;2.90;;;16.50;99.90;;;16.82;60.27;99214.91;4907698;28;98277;-48
2023/10/26 07:12:30;;;;;;;4.33;2.57;;;16.40;99.90;;;16.66;59.36;99220.63;4910799;28;98929;-56
2023/10/26 07:14:57;;;;;;;1.50;1.17;;;16.10;99.90;;;16.64;62.25;99221.75;4886222;28;97421;-48
2023/10/26 07:17:24;;;;;;;1.77;0.80;;;16.00;99.90;;;16.68;62.55;99223.19;4884173;28;97775;-48
2023/10/26 07:19:52;;;;;;;1.37;0.90;;;16.10;99.90;;;16.71;62.09;99227.41;4892053;28;98592;-47
2023/10/26 07:22:18;;;;;;;1.13;0.63;;;16.10;99.90;;;16.72;62.69;99223.78;4889395;28;97324;-47
2023/10/26 07:24:44;;;;;;;1.47;0.90;;;16.10;99.90;;;16.73;62.66;99210.34;4891253;28;97895;-49
2023/10/26 07:27:09;;;;;;;1.57;0.97;;;16.20;99.90;;;16.78;62.49;99212.59;4892100;28;97023;-50
2023/10/26 07:29:35;;;;;;;4.03;2.57;;;16.30;99.90;;;16.74;61.07;99208.53;4892055;28;106622;-51
2023/10/26 07:32:01;;;;;;;0.97;0.70;;;16.20;99.90;;;16.72;62.52;99213.97;4889940;28;97198;-52
2023/10/26 07:34:27;;;;;;;0.97;0.77;;;16.20;99.90;;;16.77;62.72;99209.09;4896920;28;99098;-47
2023/10/26 07:36:53;;;;;;;1.20;1.00;;;16.30;99.90;;;16.85;62.55;99214.63;4890844;28;98736;-46
2023/10/26 07:39:19;;;;;;;0.93;0.70;;;16.50;99.90;;;16.94;62.57;99211.22;4889499;28;99103;-47
2023/10/26 07:41:44;;;;;;;0.93;0.63;;;16.60;99.90;;;17.01;62.08;99202.69;4899127;28;99195;-50
2023/10/26 07:44:10;;;;;;;1.20;1.07;;;16.80;99.90;;;17.01;61.42;99200.88;4903347;28;97563;-48
2023/10/26 07:46:36;;;;;;;0.53;0.53;;;16.70;99.90;;;17.05;61.91;99188.13;4894793;28;98942;-49
2023/10/26 07:49:03;;;;;;;1.47;0.90;;;16.70;99.90;;;17.05;61.72;99188.13;4895459;28;97985;-49
2023/10/26 07:51:29;;;;;;;1.03;0.73;;;16.70;99.90;;;17.05;61.08;99185.47;4892237;28;97540;-49
2023/10/26 07:53:54;;;;;;;2.40;1.43;;;16.70;99.90;;;17.04;61.07;99189.09;4893650;28;99973;-47
2023/10/26 07:56:20;;;;;;;3.53;2.03;;;16.60;99.90;;;17.01;60.38;99186.72;4896726;28;99434;-50
2023/10/26 07:58:46;;;;;;;3.97;2.83;;;16.60;99.90;;;16.90;60.12;99188.44;4893416;28;97496;-46
2023/10/26 08:01:12;;;;;;;0.83;0.83;;;16.40;99.90;;;16.90;61.81;99196.44;4889997;28;99779;-49
2023/10/26 08:03:38;;;;;;;1.50;0.90;;;16.30;99.90;;;16.91;61.85;99191.97;4887902;28;97236;-49
2023/10/26 08:06:06;;;;;;;3.37;1.43;;;16.40;99.90;;;16.93;62.12;99198.88;4888945;28;97231;-48
2023/10/26 08:08:37;;;;;;;0.90;0.67;;;16.40;99.90;;;16.97;61.84;99203.94;4976305;23;97812;-74
2023/10/26 08:11:16;;;;;;;5.53;2.67;;;16.50;99.90;;;16.89;61.13;99194.75;4885277;28;97512;-74
2023/10/26 08:13:42;;;;;;;2.57;1.87;;;16.40;99.90;;;16.86;61.75;99197.69;4895924;28;97276;-74
2023/10/26 08:16:08;;;;;;;7.13;4.50;;;16.30;99.90;;;16.72;60.38;99203.31;4900106;28;97446;-74
2023/10/26 08:18:34;;;;;;;8.30;4.60;;;16.20;99.90;;;16.59;60.33;99210.63;4905455;28;109509;-74
2023/10/26 08:21:03;;;;;;;8.00;4.43;;;16.00;99.90;;;16.46;60.70;99216.09;4902775;28;98586;-74
2023/10/26 08:23:31;;;;;;;6.87;4.00;;;15.90;99.90;;;16.48;62.57;99222.13;4895812;28;97078;-73
2023/10/26 08:25:57;;;;;;;4.33;2.37;;;15.80;99.90;;;16.51;62.75;99210.41;4899077;28;103391;-74
2023/10/26 08:28:24;;;;;;;1.43;0.87;;;15.90;99.90;;;16.58;62.95;99204.44;4897360;28;99377;-73
2023/10/26 08:30:52;;;;;;;9.60;4.93;;;16.00;99.90;;;16.59;61.85;99210.63;4899725;28;98354;-74
2023/10/26 08:33:18;;;;;;;5.63;3.70;;;16.10;99.90;;;16.61;62.03;99211.31;4883282;28;98349;-74
2023/10/26 08:35:50;;;;;;;8.47;4.80;;;16.10;99.90;;;16.11;60.20;99203.03;4877140;28;99875;-73
2023/10/26 08:38:17;;;;;;;6.83;3.93;;;15.70;99.90;;;16.25;64.15;99208.09;4898529;28;98501;-74
2023/10/26 08:40:55;;;;;;;7.13;4.50;;;15.60;99.90;;;16.26;61.72;99207.09;4901016;28;99388;-74
2023/10/26 08:43:22;;;;;;;8.70;4.63;;;15.70;99.90;;;16.20;60.70;99218.25;5083292;23;98241;-73
2023/10/26 08:45:48;;;;;;;5.70;3.80;;;15.70;99.90;;;15.99;63.37;99219.97;4897065;28;97514;-73
2023/10/26 08:48:18;;;;;;;2.57;1.53;;;15.40;99.90;;;16.12;64.55;99227.81;4885591;28;98525;-73
2023/10/26 08:50:48;;;;;;;5.27;2.07;;;15.60;99.90;;;16.18;64.42;99228.16;4976068;23;98586;-74
2023/10/26 08:53:15;;;;;;;8.27;4.93;;;15.70;99.90;;;16.09;62.80;99234.25;4884616;28;97527;-73
2023/10/26 08:55:42;;;;;;;11.73;4.63;;;15.70;99.90;;;16.11;61.73;99234.97;4860620;28;100392;-74
2023/10/26 08:58:09;;;;;;;3.80;1.53;;;15.70;99.90;;;16.18;63.96;99225.50;4881928;28;97535;-73
2023/10/26 09:00:41;;;;;;;8.50;4.80;;;15.70;99.90;;;16.19;61.79;99236.97;4896238;28;104647;-74
2023/10/26 09:03:08;;;;;;;7.00;3.67;;;15.70;99.90;;;16.26;62.77;99236.38;4881132;28;97689;-74
2023/10/26 09:05:55;;;;;;;9.03;4.70;;;15.80;99.90;;;16.30;61.07;99235.16;4883615;28;97853;-74
2023/10/26 09:08:27;;;;;;;7.90;4.67;;;15.90;99.90;;;16.35;63.69;99234.78;4891355;28;97315;-74
2023/10/26 09:10:53;;;;;;;8.83;4.87;;;15.90;99.90;;;16.43;63.63;99239.47;4897128;28;98112;-74
2023/10/26 09:13:25;;;;;;;7.73;4.63;;;16.00;99.90;;;16.47;61.84;99235.56;4898081;28;97690;-73
2023/10/26 09:15:54;;;;;;;10.17;4.73;;;16.00;99.90;;;16.34;59.19;99225.94;4887963;28;100552;-74
2023/10/26 09:18:21;;;;;;;8.10;4.00;;;15.90;99.90;;;16.35;61.44;99232.97;4884622;28;98741;-73
2023/10/26 09:21:05;;;;;;;1.80;0.97;;;15.90;99.90;;;16.52;63.40;99241.38;4897379;28;97434;-74
2023/10/26 09:23:34;;;;;;;2.67;1.50;;;16.10;99.90;;;16.55;63.32;99238.47;4883980;28;97620;-73
2023/10/26 09:26:07;;;;;;;11.27;4.60;;;16.10;99.90;;;16.54;61.72;99248.25;4887020;28;97093;-74
2023/10/26 09:28:54;;;;;;;6.50;3.73;;;16.10;99.90;;;16.54;60.49;99242.94;4872685;28;104048;-74
2023/10/26 09:31:22;;;;;;;6.10;3.77;;;16.10;99.90;;;16.61;61.78;99244.09;4888589;28;97412;-73
2023/10/26 09:33:49;;;;;;;7.30;4.20;;;16.20;99.90;;;16.53;61.87;99248.41;4879953;28;97661;-74
2023/10/26 09:36:20;;;;;;;8.43;5.03;;;16.10;99.90;;;16.50;61.83;99248.66;4883242;28;101028;-74
2023/10/26 09:38:50;;;;;;;1.60;1.17;;;16.10;99.90;;;16.62;63.22;99231.66;4892963;28;99561;-74
2023/10/26 09:41:18;;;;;;;12.00;6.57;;;16.20;99.90;;;16.69;62.64;99246.19;4889044;28;97364;-73
2023/10/26 09:43:45;;;;;;;11.27;6.27;;;16.30;99.90;;;16.72;60.21;99240.59;4884270;28;97785;-74
2023/10/26 09:46:13;;;;;;;9.40;5.83;;;16.40;99.90;;;16.79;59.55;99236.47;4900705;28;98866;-74
2023/10/26 09:48:40;;;;;;;12.70;6.27;;;16.50;99.90;;;16.66;59.03;99235.75;4899867;28;98177;-74
2023/10/26 09:51:07;;;;;;;9.80;5.63;;;16.30;99.90;;;16.67;62.31;99242.81;4887587;28;97146;-74
2023/10/26 09:53:37;;;;;;;10.37;6.30;;;16.20;99.90;;;16.76;61.22;99236.69;4898750;28;97573;-74
2023/10/26 09:56:05;;;;;;;12.63;7.13;;;16.40;99.90;;;16.78;60.65;99231.25;4892899;28;98017;-73
2023/10/26 09:58:40;;;;;;;14.40;6.00;;;16.40;99.90;;;16.66;58.35;99235.75;4886027;28;98935;-74
2023/10/26 10:01:40;;;;;;;10.93;6.67;;;16.30;99.90;;;16.68;62.40;99233.84;4895699;28;98647;-74
2023/10/26 10:04:13;;;;;;;3.33;1.30;;;16.20;99.90;;;16.78;62.74;99242.75;4891427;28;97594;-74
2023/10/26 10:06:58;;;;;;;1.50;1.27;;;16.40;99.90;;;16.95;62.22;99236.03;4890968;28;97605;-74
2023/10/26 10:09:28;;;;;;;1.97;1.33;;;16.70;99.90;;;17.06;61.85;99235.09;4885854;28;99097;-74
2023/10/26 10:12:15;;;;;;;1.73;1.30;;;16.90;99.90;;;17.21;61.26;99236.44;4891708;28;97365;-74
2023/10/26 10:14:47;;;;;;;1.77;1.10;;;17.10;99.90;;;17.36;60.83;99224.50;4881839;28;101907;-74
2023/10/26 10:17:22;;;;;;;1.30;0.87;;;17.40;99.90;;;17.48;60.46;99211.91;4893298;28;98654;-74